Rowena, Missouri
Current Conditions -  °F | °C
As of 5:54 AM on Monday 20 Oct 2014 (Local Time) from KCOU Reporting Station
Haze Haze  
Wind Chill: 47°   Ceiling: Unl
Heat Index: 49°   Visibility: 6mi
Dew Point: 48°   Wind: 6mph
Humidity: 97%   Direction: 220°SW
Pressure: 29.98"   Gusts: NA
Location:  39.2043°N, 92.1568°W
Report Text: KCOU 201054Z AUTO 22005KT 6SM BR CLR 09/09 A2998 RMK AO2 SLP151 T00940089
Loading
Personal Weather Stations






























Interactive Weather Map
Tropical Storm Tracking
New forecast layout! Learn more

10-Day Weather Forecast

Advertisements
Track Severe Weather on mobile